sensor_id;sensor_type;location;lat;lon;timestamp;P1;durP1;ratioP1;P2;durP2;ratioP2
19038;SDS011;9652;49.014;12.052;2024-03-25T00:01:16;3.63;;;3.23;;
19038;SDS011;9652;49.014;12.052;2024-03-25T00:03:43;3.90;;;3.60;;
19038;SDS011;9652;49.014;12.052;2024-03-25T00:06:09;3.53;;;3.23;;
19038;SDS011;9652;49.014;12.052;2024-03-25T00:08:36;3.63;;;3.33;;
19038;SDS011;9652;49.014;12.052;2024-03-25T00:11:03;3.80;;;3.50;;
19038;SDS011;9652;49.014;12.052;2024-03-25T00:13:31;5.23;;;3.17;;
19038;SDS011;9652;49.014;12.052;2024-03-25T00:15:57;3.90;;;3.60;;
19038;SDS011;9652;49.014;12.052;2024-03-25T00:18:24;3.60;;;3.40;;
19038;SDS011;9652;49.014;12.052;2024-03-25T00:20:51;3.37;;;3.07;;
19038;SDS011;9652;49.014;12.052;2024-03-25T00:23:18;4.80;;;3.33;;
19038;SDS011;9652;49.014;12.052;2024-03-25T00:25:44;3.13;;;2.83;;
19038;SDS011;9652;49.014;12.052;2024-03-25T00:28:11;3.17;;;2.97;;
19038;SDS011;9652;49.014;12.052;2024-03-25T00:30:38;3.63;;;3.37;;
19038;SDS011;9652;49.014;12.052;2024-03-25T00:33:05;3.37;;;3.17;;
19038;SDS011;9652;49.014;12.052;2024-03-25T00:35:32;3.27;;;2.97;;
19038;SDS011;9652;49.014;12.052;2024-03-25T00:37:59;3.50;;;3.13;;
19038;SDS011;9652;49.014;12.052;2024-03-25T00:40:25;5.20;;;3.13;;
19038;SDS011;9652;49.014;12.052;2024-03-25T00:42:52;4.00;;;3.07;;
19038;SDS011;9652;49.014;12.052;2024-03-25T00:45:18;3.60;;;3.40;;
19038;SDS011;9652;49.014;12.052;2024-03-25T00:47:47;3.70;;;3.40;;
19038;SDS011;9652;49.014;12.052;2024-03-25T00:50:13;3.77;;;3.47;;
19038;SDS011;9652;49.014;12.052;2024-03-25T00:52:41;4.03;;;3.30;;
19038;SDS011;9652;49.014;12.052;2024-03-25T00:55:07;3.43;;;3.13;;
19038;SDS011;9652;49.014;12.052;2024-03-25T00:57:34;3.33;;;3.03;;
19038;SDS011;9652;49.014;12.052;2024-03-25T01:00:00;3.63;;;3.30;;
19038;SDS011;9652;49.014;12.052;2024-03-25T01:02:29;5.83;;;2.87;;
19038;SDS011;9652;49.014;12.052;2024-03-25T01:04:57;3.43;;;3.13;;
19038;SDS011;9652;49.014;12.052;2024-03-25T01:07:25;3.60;;;3.27;;
19038;SDS011;9652;49.014;12.052;2024-03-25T01:09:51;3.50;;;3.30;;
19038;SDS011;9652;49.014;12.052;2024-03-25T01:12:18;3.30;;;3.10;;
19038;SDS011;9652;49.014;12.052;2024-03-25T01:14:44;3.33;;;3.13;;
19038;SDS011;9652;49.014;12.052;2024-03-25T01:17:12;3.73;;;3.50;;
19038;SDS011;9652;49.014;12.052;2024-03-25T01:19:38;3.47;;;3.17;;
19038;SDS011;9652;49.014;12.052;2024-03-25T01:22:06;3.80;;;3.50;;
19038;SDS011;9652;49.014;12.052;2024-03-25T01:24:33;3.33;;;2.93;;
19038;SDS011;9652;49.014;12.052;2024-03-25T01:27:00;3.60;;;3.40;;
19038;SDS011;9652;49.014;12.052;2024-03-25T01:29:26;4.63;;;3.27;;
19038;SDS011;9652;49.014;12.052;2024-03-25T01:31:53;5.37;;;3.63;;
19038;SDS011;9652;49.014;12.052;2024-03-25T01:34:19;3.33;;;3.03;;
19038;SDS011;9652;49.014;12.052;2024-03-25T01:36:46;3.27;;;3.07;;
19038;SDS011;9652;49.014;12.052;2024-03-25T01:39:13;4.73;;;3.90;;
19038;SDS011;9652;49.014;12.052;2024-03-25T01:41:41;3.87;;;3.10;;
19038;SDS011;9652;49.014;12.052;2024-03-25T01:44:07;4.17;;;3.77;;
19038;SDS011;9652;49.014;12.052;2024-03-25T01:46:34;3.70;;;3.40;;
19038;SDS011;9652;49.014;12.052;2024-03-25T01:49:01;4.73;;;3.97;;
19038;SDS011;9652;49.014;12.052;2024-03-25T01:51:28;5.57;;;3.70;;
19038;SDS011;9652;49.014;12.052;2024-03-25T01:53:55;3.73;;;3.43;;
19038;SDS011;9652;49.014;12.052;2024-03-25T01:56:26;3.40;;;3.10;;
19038;SDS011;9652;49.014;12.052;2024-03-25T01:58:56;4.27;;;3.97;;
19038;SDS011;9652;49.014;12.052;2024-03-25T02:01:23;4.40;;;3.77;;
19038;SDS011;9652;49.014;12.052;2024-03-25T02:03:51;5.13;;;4.17;;
19038;SDS011;9652;49.014;12.052;2024-03-25T02:06:21;3.67;;;3.30;;
19038;SDS011;9652;49.014;12.052;2024-03-25T02:08:51;3.77;;;3.43;;
19038;SDS011;9652;49.014;12.052;2024-03-25T02:11:20;3.40;;;3.10;;
19038;SDS011;9652;49.014;12.052;2024-03-25T02:13:50;3.73;;;3.43;;
19038;SDS011;9652;49.014;12.052;2024-03-25T02:16:18;3.73;;;3.43;;
19038;SDS011;9652;49.014;12.052;2024-03-25T02:18:44;4.37;;;3.63;;
19038;SDS011;9652;49.014;12.052;2024-03-25T02:21:11;5.13;;;3.60;;
19038;SDS011;9652;49.014;12.052;2024-03-25T02:23:37;5.17;;;3.87;;
19038;SDS011;9652;49.014;12.052;2024-03-25T02:26:10;4.20;;;3.90;;
19038;SDS011;9652;49.014;12.052;2024-03-25T02:28:36;3.47;;;3.27;;
19038;SDS011;9652;49.014;12.052;2024-03-25T02:31:03;4.07;;;3.70;;
19038;SDS011;9652;49.014;12.052;2024-03-25T02:33:29;3.70;;;3.40;;
19038;SDS011;9652;49.014;12.052;2024-03-25T02:35:56;3.80;;;3.50;;
19038;SDS011;9652;49.014;12.052;2024-03-25T02:38:22;3.73;;;3.43;;
19038;SDS011;9652;49.014;12.052;2024-03-25T02:40:50;3.00;;;2.80;;
19038;SDS011;9652;49.014;12.052;2024-03-25T02:43:17;4.40;;;4.10;;
19038;SDS011;9652;49.014;12.052;2024-03-25T02:45:46;3.43;;;3.07;;
19038;SDS011;9652;49.014;12.052;2024-03-25T02:48:12;4.20;;;3.90;;
19038;SDS011;9652;49.014;12.052;2024-03-25T02:50:39;3.90;;;3.50;;
19038;SDS011;9652;49.014;12.052;2024-03-25T02:53:05;3.93;;;3.60;;
19038;SDS011;9652;49.014;12.052;2024-03-25T02:55:33;3.03;;;2.83;;
19038;SDS011;9652;49.014;12.052;2024-03-25T02:57:59;4.63;;;4.23;;
19038;SDS011;9652;49.014;12.052;2024-03-25T03:00:27;3.83;;;3.53;;
19038;SDS011;9652;49.014;12.052;2024-03-25T03:02:53;4.67;;;3.47;;
19038;SDS011;9652;49.014;12.052;2024-03-25T03:05:20;4.47;;;4.07;;
19038;SDS011;9652;49.014;12.052;2024-03-25T03:07:46;3.47;;;3.27;;
19038;SDS011;9652;49.014;12.052;2024-03-25T03:10:13;4.17;;;3.87;;
19038;SDS011;9652;49.014;12.052;2024-03-25T03:12:41;3.50;;;3.20;;
19038;SDS011;9652;49.014;12.052;2024-03-25T03:15:08;4.53;;;3.57;;
19038;SDS011;9652;49.014;12.052;2024-03-25T03:17:36;3.90;;;3.60;;
19038;SDS011;9652;49.014;12.052;2024-03-25T03:20:03;3.60;;;3.30;;
19038;SDS011;9652;49.014;12.052;2024-03-25T03:22:32;3.17;;;2.97;;
19038;SDS011;9652;49.014;12.052;2024-03-25T03:24:59;3.47;;;3.17;;
19038;SDS011;9652;49.014;12.052;2024-03-25T03:27:25;3.90;;;3.60;;
19038;SDS011;9652;49.014;12.052;2024-03-25T03:29:52;3.47;;;3.27;;
19038;SDS011;9652;49.014;12.052;2024-03-25T03:32:18;3.50;;;3.17;;
19038;SDS011;9652;49.014;12.052;2024-03-25T03:34:47;3.90;;;3.60;;
19038;SDS011;9652;49.014;12.052;2024-03-25T03:37:13;4.43;;;3.80;;
19038;SDS011;9652;49.014;12.052;2024-03-25T03:39:40;4.57;;;3.27;;
19038;SDS011;9652;49.014;12.052;2024-03-25T03:42:06;5.33;;;3.60;;
19038;SDS011;9652;49.014;12.052;2024-03-25T03:44:33;3.40;;;3.10;;
19038;SDS011;9652;49.014;12.052;2024-03-25T03:46:59;2.90;;;2.70;;
19038;SDS011;9652;49.014;12.052;2024-03-25T03:49:27;3.87;;;3.50;;
19038;SDS011;9652;49.014;12.052;2024-03-25T03:51:54;3.43;;;3.23;;
19038;SDS011;9652;49.014;12.052;2024-03-25T03:54:22;4.50;;;3.53;;
19038;SDS011;9652;49.014;12.052;2024-03-25T03:56:48;4.70;;;3.70;;
19038;SDS011;9652;49.014;12.052;2024-03-25T03:59:15;3.80;;;3.50;;
19038;SDS011;9652;49.014;12.052;2024-03-25T04:01:41;3.80;;;3.47;;
19038;SDS011;9652;49.014;12.052;2024-03-25T04:04:08;3.40;;;3.20;;
19038;SDS011;9652;49.014;12.052;2024-03-25T04:06:35;3.73;;;3.43;;
19038;SDS011;9652;49.014;12.052;2024-03-25T04:09:06;4.27;;;3.70;;
19038;SDS011;9652;49.014;12.052;2024-03-25T04:11:35;3.80;;;3.50;;
19038;SDS011;9652;49.014;12.052;2024-03-25T04:14:02;3.70;;;3.50;;
19038;SDS011;9652;49.014;12.052;2024-03-25T04:16:28;3.80;;;3.50;;
19038;SDS011;9652;49.014;12.052;2024-03-25T04:18:56;3.90;;;3.13;;
19038;SDS011;9652;49.014;12.052;2024-03-25T04:21:22;3.47;;;3.17;;
19038;SDS011;9652;49.014;12.052;2024-03-25T04:23:50;3.40;;;3.20;;
19038;SDS011;9652;49.014;12.052;2024-03-25T04:26:17;3.73;;;3.40;;
19038;SDS011;9652;49.014;12.052;2024-03-25T04:28:44;3.90;;;3.60;;
19038;SDS011;9652;49.014;12.052;2024-03-25T04:31:11;3.30;;;3.00;;
19038;SDS011;9652;49.014;12.052;2024-03-25T04:33:38;3.70;;;3.40;;
19038;SDS011;9652;49.014;12.052;2024-03-25T04:36:04;3.30;;;3.10;;
19038;SDS011;9652;49.014;12.052;2024-03-25T04:38:31;3.30;;;3.00;;
19038;SDS011;9652;49.014;12.052;2024-03-25T04:40:58;3.47;;;3.03;;
19038;SDS011;9652;49.014;12.052;2024-03-25T04:43:25;3.33;;;3.03;;
19038;SDS011;9652;49.014;12.052;2024-03-25T04:45:51;4.37;;;3.37;;
19038;SDS011;9652;49.014;12.052;2024-03-25T04:48:17;3.00;;;2.70;;
19038;SDS011;9652;49.014;12.052;2024-03-25T04:50:43;3.67;;;3.37;;
19038;SDS011;9652;49.014;12.052;2024-03-25T04:53:10;3.23;;;3.00;;
19038;SDS011;9652;49.014;12.052;2024-03-25T04:55:36;3.30;;;3.10;;
19038;SDS011;9652;49.014;12.052;2024-03-25T04:58:02;4.20;;;3.50;;
19038;SDS011;9652;49.014;12.052;2024-03-25T05:00:30;3.83;;;3.53;;
19038;SDS011;9652;49.014;12.052;2024-03-25T05:02:56;3.20;;;3.00;;
19038;SDS011;9652;49.014;12.052;2024-03-25T05:05:23;3.80;;;3.50;;
19038;SDS011;9652;49.014;12.052;2024-03-25T05:07:49;3.53;;;3.10;;
19038;SDS011;9652;49.014;12.052;2024-03-25T05:10:15;3.60;;;3.30;;
19038;SDS011;9652;49.014;12.052;2024-03-25T05:12:41;4.10;;;3.80;;
19038;SDS011;9652;49.014;12.052;2024-03-25T05:15:08;4.03;;;3.63;;
19038;SDS011;9652;49.014;12.052;2024-03-25T05:17:35;4.20;;;3.30;;
19038;SDS011;9652;49.014;12.052;2024-03-25T05:20:02;3.60;;;3.23;;
19038;SDS011;9652;49.014;12.052;2024-03-25T05:22:29;3.33;;;3.13;;
19038;SDS011;9652;49.014;12.052;2024-03-25T05:24:55;3.73;;;3.27;;
19038;SDS011;9652;49.014;12.052;2024-03-25T05:27:21;3.80;;;3.50;;
19038;SDS011;9652;49.014;12.052;2024-03-25T05:29:48;3.87;;;3.43;;
19038;SDS011;9652;49.014;12.052;2024-03-25T05:32:15;3.57;;;3.27;;
19038;SDS011;9652;49.014;12.052;2024-03-25T05:34:43;4.53;;;3.43;;
19038;SDS011;9652;49.014;12.052;2024-03-25T05:37:09;4.00;;;3.30;;
19038;SDS011;9652;49.014;12.052;2024-03-25T05:39:35;4.47;;;3.50;;
19038;SDS011;9652;49.014;12.052;2024-03-25T05:42:02;3.53;;;3.23;;
19038;SDS011;9652;49.014;12.052;2024-03-25T05:44:29;3.37;;;3.17;;
19038;SDS011;9652;49.014;12.052;2024-03-25T05:46:55;3.50;;;3.20;;
19038;SDS011;9652;49.014;12.052;2024-03-25T05:49:21;4.23;;;3.20;;
19038;SDS011;9652;49.014;12.052;2024-03-25T05:51:48;3.20;;;2.87;;
19038;SDS011;9652;49.014;12.052;2024-03-25T05:54:15;4.93;;;3.80;;
19038;SDS011;9652;49.014;12.052;2024-03-25T05:56:41;3.83;;;3.53;;
19038;SDS011;9652;49.014;12.052;2024-03-25T05:59:07;4.37;;;3.80;;
19038;SDS011;9652;49.014;12.052;2024-03-25T06:01:33;3.57;;;3.27;;
19038;SDS011;9652;49.014;12.052;2024-03-25T06:03:59;3.67;;;3.37;;
19038;SDS011;9652;49.014;12.052;2024-03-25T06:06:26;5.13;;;3.67;;
19038;SDS011;9652;49.014;12.052;2024-03-25T06:08:53;4.70;;;3.63;;
19038;SDS011;9652;49.014;12.052;2024-03-25T06:11:19;4.37;;;3.80;;
19038;SDS011;9652;49.014;12.052;2024-03-25T06:13:45;3.50;;;3.27;;
19038;SDS011;9652;49.014;12.052;2024-03-25T06:16:12;3.30;;;3.00;;
19038;SDS011;9652;49.014;12.052;2024-03-25T06:18:40;3.80;;;3.50;;
19038;SDS011;9652;49.014;12.052;2024-03-25T06:21:06;6.10;;;3.53;;
19038;SDS011;9652;49.014;12.052;2024-03-25T06:23:32;3.40;;;3.20;;
19038;SDS011;9652;49.014;12.052;2024-03-25T06:26:00;3.17;;;2.97;;
19038;SDS011;9652;49.014;12.052;2024-03-25T06:28:26;4.13;;;3.47;;
19038;SDS011;9652;49.014;12.052;2024-03-25T06:30:52;7.20;;;3.80;;
19038;SDS011;9652;49.014;12.052;2024-03-25T06:33:37;3.70;;;3.40;;
19038;SDS011;9652;49.014;12.052;2024-03-25T06:36:21;3.47;;;3.00;;
19038;SDS011;9652;49.014;12.052;2024-03-25T06:38:48;4.73;;;4.33;;
19038;SDS011;9652;49.014;12.052;2024-03-25T06:41:15;3.73;;;3.43;;
19038;SDS011;9652;49.014;12.052;2024-03-25T06:43:42;4.00;;;3.70;;
19038;SDS011;9652;49.014;12.052;2024-03-25T06:46:08;3.60;;;3.30;;
19038;SDS011;9652;49.014;12.052;2024-03-25T06:48:34;3.60;;;3.40;;
19038;SDS011;9652;49.014;12.052;2024-03-25T06:51:00;3.93;;;3.60;;
19038;SDS011;9652;49.014;12.052;2024-03-25T06:53:27;3.63;;;3.33;;
19038;SDS011;9652;49.014;12.052;2024-03-25T06:55:54;3.40;;;3.10;;
19038;SDS011;9652;49.014;12.052;2024-03-25T06:58:23;5.73;;;3.23;;
19038;SDS011;9652;49.014;12.052;2024-03-25T07:00:50;3.27;;;2.97;;
19038;SDS011;9652;49.014;12.052;2024-03-25T07:03:17;4.73;;;3.57;;
19038;SDS011;9652;49.014;12.052;2024-03-25T07:05:44;4.63;;;3.60;;
19038;SDS011;9652;49.014;12.052;2024-03-25T07:08:11;3.43;;;3.13;;
19038;SDS011;9652;49.014;12.052;2024-03-25T07:10:38;4.63;;;3.47;;
19038;SDS011;9652;49.014;12.052;2024-03-25T07:13:04;3.70;;;3.40;;
19038;SDS011;9652;49.014;12.052;2024-03-25T07:15:32;3.80;;;3.50;;
19038;SDS011;9652;49.014;12.052;2024-03-25T07:17:58;3.67;;;2.87;;
19038;SDS011;9652;49.014;12.052;2024-03-25T07:20:25;3.83;;;2.87;;
19038;SDS011;9652;49.014;12.052;2024-03-25T07:22:52;4.60;;;3.53;;
19038;SDS011;9652;49.014;12.052;2024-03-25T07:25:18;3.57;;;3.03;;
19038;SDS011;9652;49.014;12.052;2024-03-25T07:27:44;3.53;;;3.17;;
19038;SDS011;9652;49.014;12.052;2024-03-25T07:30:11;4.67;;;4.00;;
19038;SDS011;9652;49.014;12.052;2024-03-25T07:32:38;3.60;;;3.30;;
19038;SDS011;9652;49.014;12.052;2024-03-25T07:35:05;3.47;;;2.83;;
19038;SDS011;9652;49.014;12.052;2024-03-25T07:37:31;3.63;;;3.30;;
19038;SDS011;9652;49.014;12.052;2024-03-25T07:39:58;3.50;;;3.20;;
19038;SDS011;9652;49.014;12.052;2024-03-25T07:42:24;3.30;;;3.00;;
19038;SDS011;9652;49.014;12.052;2024-03-25T07:44:50;4.03;;;2.80;;
19038;SDS011;9652;49.014;12.052;2024-03-25T07:47:16;3.60;;;3.30;;
19038;SDS011;9652;49.014;12.052;2024-03-25T07:49:44;5.23;;;2.97;;
19038;SDS011;9652;49.014;12.052;2024-03-25T07:52:10;3.30;;;3.07;;
19038;SDS011;9652;49.014;12.052;2024-03-25T07:54:36;3.43;;;3.10;;
19038;SDS011;9652;49.014;12.052;2024-03-25T07:57:03;3.20;;;2.90;;
19038;SDS011;9652;49.014;12.052;2024-03-25T07:59:29;3.93;;;3.47;;
19038;SDS011;9652;49.014;12.052;2024-03-25T08:01:56;2.77;;;2.37;;
19038;SDS011;9652;49.014;12.052;2024-03-25T08:04:22;3.50;;;2.60;;
19038;SDS011;9652;49.014;12.052;2024-03-25T08:06:50;3.27;;;2.80;;
19038;SDS011;9652;49.014;12.052;2024-03-25T08:09:16;3.67;;;2.87;;
19038;SDS011;9652;49.014;12.052;2024-03-25T08:11:42;3.50;;;2.60;;
19038;SDS011;9652;49.014;12.052;2024-03-25T08:14:09;2.63;;;2.43;;
19038;SDS011;9652;49.014;12.052;2024-03-25T08:16:35;2.37;;;2.23;;
19038;SDS011;9652;49.014;12.052;2024-03-25T08:19:02;2.83;;;2.13;;
19038;SDS011;9652;49.014;12.052;2024-03-25T08:21:28;3.23;;;2.40;;
19038;SDS011;9652;49.014;12.052;2024-03-25T08:23:56;3.67;;;3.17;;
19038;SDS011;9652;49.014;12.052;2024-03-25T08:26:22;3.77;;;2.77;;
19038;SDS011;9652;49.014;12.052;2024-03-25T08:28:48;2.93;;;2.60;;
19038;SDS011;9652;49.014;12.052;2024-03-25T08:31:14;2.97;;;2.43;;
19038;SDS011;9652;49.014;12.052;2024-03-25T08:33:41;2.57;;;2.37;;
19038;SDS011;9652;49.014;12.052;2024-03-25T08:36:07;3.20;;;2.60;;
19038;SDS011;9652;49.014;12.052;2024-03-25T08:38:33;8.43;;;2.57;;
19038;SDS011;9652;49.014;12.052;2024-03-25T08:41:01;2.13;;;2.00;;
19038;SDS011;9652;49.014;12.052;2024-03-25T08:43:28;3.23;;;2.30;;
19038;SDS011;9652;49.014;12.052;2024-03-25T08:45:54;2.50;;;2.13;;
19038;SDS011;9652;49.014;12.052;2024-03-25T08:48:20;2.63;;;2.00;;
19038;SDS011;9652;49.014;12.052;2024-03-25T08:50:46;2.50;;;2.23;;
19038;SDS011;9652;49.014;12.052;2024-03-25T08:53:13;2.20;;;2.00;;
19038;SDS011;9652;49.014;12.052;2024-03-25T08:55:43;2.47;;;2.10;;
19038;SDS011;9652;49.014;12.052;2024-03-25T08:58:12;2.10;;;1.90;;
19038;SDS011;9652;49.014;12.052;2024-03-25T09:00:39;2.10;;;1.90;;
19038;SDS011;9652;49.014;12.052;2024-03-25T09:03:05;2.40;;;2.20;;
19038;SDS011;9652;49.014;12.052;2024-03-25T09:05:31;2.30;;;2.00;;
19038;SDS011;9652;49.014;12.052;2024-03-25T09:07:58;2.30;;;2.10;;
19038;SDS011;9652;49.014;12.052;2024-03-25T09:10:24;1.90;;;1.80;;
19038;SDS011;9652;49.014;12.052;2024-03-25T09:13:09;1.83;;;1.60;;
19038;SDS011;9652;49.014;12.052;2024-03-25T09:15:37;2.20;;;2.00;;
19038;SDS011;9652;49.014;12.052;2024-03-25T09:18:03;2.00;;;1.90;;
19038;SDS011;9652;49.014;12.052;2024-03-25T09:20:29;3.00;;;1.60;;
19038;SDS011;9652;49.014;12.052;2024-03-25T09:22:56;3.03;;;1.40;;
19038;SDS011;9652;49.014;12.052;2024-03-25T09:25:22;1.60;;;1.50;;
19038;SDS011;9652;49.014;12.052;2024-03-25T09:27:49;1.70;;;1.60;;
19038;SDS011;9652;49.014;12.052;2024-03-25T09:30:16;3.07;;;1.53;;
19038;SDS011;9652;49.014;12.052;2024-03-25T09:32:44;1.63;;;1.53;;
19038;SDS011;9652;49.014;12.052;2024-03-25T09:35:11;1.40;;;1.30;;
19038;SDS011;9652;49.014;12.052;2024-03-25T09:37:37;2.00;;;1.80;;
19038;SDS011;9652;49.014;12.052;2024-03-25T09:40:04;2.93;;;1.73;;
19038;SDS011;9652;49.014;12.052;2024-03-25T09:42:33;1.97;;;1.87;;
19038;SDS011;9652;49.014;12.052;2024-03-25T09:45:12;5.17;;;1.87;;
19038;SDS011;9652;49.014;12.052;2024-03-25T09:47:42;1.97;;;1.40;;
19038;SDS011;9652;49.014;12.052;2024-03-25T09:50:13;2.03;;;1.80;;
19038;SDS011;9652;49.014;12.052;2024-03-25T09:52:40;2.37;;;1.40;;
19038;SDS011;9652;49.014;12.052;2024-03-25T09:55:07;1.53;;;1.43;;
19038;SDS011;9652;49.014;12.052;2024-03-25T09:57:34;2.60;;;1.60;;
19038;SDS011;9652;49.014;12.052;2024-03-25T10:00:01;1.67;;;1.57;;
19038;SDS011;9652;49.014;12.052;2024-03-25T10:02:39;1.80;;;1.60;;
19038;SDS011;9652;49.014;12.052;2024-03-25T10:05:08;2.87;;;1.60;;
19038;SDS011;9652;49.014;12.052;2024-03-25T10:07:34;2.10;;;1.60;;
19038;SDS011;9652;49.014;12.052;2024-03-25T10:10:03;1.63;;;1.53;;
19038;SDS011;9652;49.014;12.052;2024-03-25T10:12:30;2.00;;;1.80;;
19038;SDS011;9652;49.014;12.052;2024-03-25T10:14:56;1.80;;;1.50;;
19038;SDS011;9652;49.014;12.052;2024-03-25T10:17:23;3.13;;;1.60;;
19038;SDS011;9652;49.014;12.052;2024-03-25T10:19:49;3.07;;;1.70;;
19038;SDS011;9652;49.014;12.052;2024-03-25T10:22:17;4.17;;;1.90;;
19038;SDS011;9652;49.014;12.052;2024-03-25T10:24:44;1.43;;;1.33;;
19038;SDS011;9652;49.014;12.052;2024-03-25T10:27:11;1.50;;;1.40;;
19038;SDS011;9652;49.014;12.052;2024-03-25T10:29:44;1.50;;;1.40;;
19038;SDS011;9652;49.014;12.052;2024-03-25T10:32:10;1.40;;;1.30;;
19038;SDS011;9652;49.014;12.052;2024-03-25T10:34:38;1.93;;;1.70;;
19038;SDS011;9652;49.014;12.052;2024-03-25T10:37:05;2.67;;;1.63;;
19038;SDS011;9652;49.014;12.052;2024-03-25T10:39:38;1.80;;;1.43;;
19038;SDS011;9652;49.014;12.052;2024-03-25T10:42:09;2.77;;;1.60;;
19038;SDS011;9652;49.014;12.052;2024-03-25T10:44:39;1.37;;;1.27;;
19038;SDS011;9652;49.014;12.052;2024-03-25T10:47:06;2.03;;;1.83;;
19038;SDS011;9652;49.014;12.052;2024-03-25T10:49:42;4.60;;;1.60;;
19038;SDS011;9652;49.014;12.052;2024-03-25T10:52:15;1.70;;;1.60;;
19038;SDS011;9652;49.014;12.052;2024-03-25T10:54:45;2.17;;;1.83;;
19038;SDS011;9652;49.014;12.052;2024-03-25T10:57:13;2.37;;;1.70;;
19038;SDS011;9652;49.014;12.052;2024-03-25T10:59:40;1.53;;;1.43;;
19038;SDS011;9652;49.014;12.052;2024-03-25T11:02:08;1.50;;;1.40;;
19038;SDS011;9652;49.014;12.052;2024-03-25T11:04:34;2.43;;;1.53;;
19038;SDS011;9652;49.014;12.052;2024-03-25T11:07:12;1.70;;;1.60;;
19038;SDS011;9652;49.014;12.052;2024-03-25T11:09:40;1.67;;;1.57;;
19038;SDS011;9652;49.014;12.052;2024-03-25T11:12:10;1.37;;;1.27;;
19038;SDS011;9652;49.014;12.052;2024-03-25T11:14:40;1.60;;;1.50;;
19038;SDS011;9652;49.014;12.052;2024-03-25T11:17:13;3.37;;;1.60;;
19038;SDS011;9652;49.014;12.052;2024-03-25T11:19:41;1.30;;;1.20;;
19038;SDS011;9652;49.014;12.052;2024-03-25T11:22:07;1.40;;;1.30;;
19038;SDS011;9652;49.014;12.052;2024-03-25T11:24:35;2.93;;;1.83;;
19038;SDS011;9652;49.014;12.052;2024-03-25T11:27:02;1.33;;;1.23;;
19038;SDS011;9652;49.014;12.052;2024-03-25T11:29:32;1.77;;;1.60;;
19038;SDS011;9652;49.014;12.052;2024-03-25T11:31:59;1.87;;;1.40;;
19038;SDS011;9652;49.014;12.052;2024-03-25T11:34:30;2.27;;;1.50;;
19038;SDS011;9652;49.014;12.052;2024-03-25T11:36:56;1.60;;;1.50;;
19038;SDS011;9652;49.014;12.052;2024-03-25T11:39:23;2.77;;;1.30;;
19038;SDS011;9652;49.014;12.052;2024-03-25T11:41:49;2.67;;;1.87;;
19038;SDS011;9652;49.014;12.052;2024-03-25T11:44:15;1.63;;;1.53;;
19038;SDS011;9652;49.014;12.052;2024-03-25T11:46:44;1.47;;;1.37;;
19038;SDS011;9652;49.014;12.052;2024-03-25T11:49:12;1.80;;;1.67;;
19038;SDS011;9652;49.014;12.052;2024-03-25T11:51:39;3.00;;;1.63;;
19038;SDS011;9652;49.014;12.052;2024-03-25T11:54:09;2.20;;;1.63;;
19038;SDS011;9652;49.014;12.052;2024-03-25T11:56:36;1.70;;;1.60;;
19038;SDS011;9652;49.014;12.052;2024-03-25T11:59:03;6.00;;;1.33;;
19038;SDS011;9652;49.014;12.052;2024-03-25T12:01:29;1.53;;;1.43;;
19038;SDS011;9652;49.014;12.052;2024-03-25T12:03:57;1.47;;;1.23;;
19038;SDS011;9652;49.014;12.052;2024-03-25T12:06:35;3.50;;;1.40;;
19038;SDS011;9652;49.014;12.052;2024-03-25T12:09:01;2.10;;;1.60;;
19038;SDS011;9652;49.014;12.052;2024-03-25T12:11:46;1.50;;;1.40;;
19038;SDS011;9652;49.014;12.052;2024-03-25T12:14:14;3.20;;;1.37;;
19038;SDS011;9652;49.014;12.052;2024-03-25T12:16:40;1.50;;;1.40;;
19038;SDS011;9652;49.014;12.052;2024-03-25T12:19:08;1.00;;;0.93;;
19038;SDS011;9652;49.014;12.052;2024-03-25T12:21:35;1.53;;;1.43;;
19038;SDS011;9652;49.014;12.052;2024-03-25T12:24:02;1.83;;;1.20;;
19038;SDS011;9652;49.014;12.052;2024-03-25T12:26:30;2.87;;;1.30;;
19038;SDS011;9652;49.014;12.052;2024-03-25T12:28:57;1.67;;;1.57;;
19038;SDS011;9652;49.014;12.052;2024-03-25T12:31:23;1.50;;;1.40;;
19038;SDS011;9652;49.014;12.052;2024-03-25T12:33:50;2.60;;;1.60;;
19038;SDS011;9652;49.014;12.052;2024-03-25T12:36:17;1.70;;;1.60;;
19038;SDS011;9652;49.014;12.052;2024-03-25T12:38:53;2.00;;;1.70;;
19038;SDS011;9652;49.014;12.052;2024-03-25T12:41:21;1.63;;;1.53;;
19038;SDS011;9652;49.014;12.052;2024-03-25T12:43:48;1.43;;;1.20;;
19038;SDS011;9652;49.014;12.052;2024-03-25T12:46:16;1.80;;;1.30;;
19038;SDS011;9652;49.014;12.052;2024-03-25T12:48:43;1.53;;;1.43;;
19038;SDS011;9652;49.014;12.052;2024-03-25T12:51:11;2.63;;;1.40;;
19038;SDS011;9652;49.014;12.052;2024-03-25T12:53:42;1.80;;;1.47;;
19038;SDS011;9652;49.014;12.052;2024-03-25T12:56:08;1.57;;;1.40;;
19038;SDS011;9652;49.014;12.052;2024-03-25T12:58:35;4.57;;;1.70;;
19038;SDS011;9652;49.014;12.052;2024-03-25T13:01:01;2.00;;;1.40;;
19038;SDS011;9652;49.014;12.052;2024-03-25T13:03:27;1.40;;;1.30;;
19038;SDS011;9652;49.014;12.052;2024-03-25T13:05:54;1.60;;;1.50;;
19038;SDS011;9652;49.014;12.052;2024-03-25T13:08:20;1.27;;;1.10;;
19038;SDS011;9652;49.014;12.052;2024-03-25T13:10:47;1.50;;;1.20;;
19038;SDS011;9652;49.014;12.052;2024-03-25T13:13:13;2.50;;;1.30;;
19038;SDS011;9652;49.014;12.052;2024-03-25T13:15:40;1.00;;;1.00;;
19038;SDS011;9652;49.014;12.052;2024-03-25T13:18:06;1.47;;;1.33;;
19038;SDS011;9652;49.014;12.052;2024-03-25T13:20:32;2.23;;;1.43;;
19038;SDS011;9652;49.014;12.052;2024-03-25T13:22:58;1.67;;;1.27;;
19038;SDS011;9652;49.014;12.052;2024-03-25T13:25:25;1.30;;;1.20;;
19038;SDS011;9652;49.014;12.052;2024-03-25T13:27:53;1.33;;;1.20;;
19038;SDS011;9652;49.014;12.052;2024-03-25T13:30:19;1.60;;;1.50;;
19038;SDS011;9652;49.014;12.052;2024-03-25T13:32:45;1.60;;;1.50;;
19038;SDS011;9652;49.014;12.052;2024-03-25T13:35:13;1.30;;;1.13;;
19038;SDS011;9652;49.014;12.052;2024-03-25T13:37:39;1.20;;;1.20;;
19038;SDS011;9652;49.014;12.052;2024-03-25T13:40:06;1.47;;;1.27;;
19038;SDS011;9652;49.014;12.052;2024-03-25T13:42:33;1.43;;;1.10;;
19038;SDS011;9652;49.014;12.052;2024-03-25T13:45:01;1.20;;;1.10;;
19038;SDS011;9652;49.014;12.052;2024-03-25T13:47:27;0.90;;;0.90;;
19038;SDS011;9652;49.014;12.052;2024-03-25T13:50:00;1.50;;;1.10;;
19038;SDS011;9652;49.014;12.052;2024-03-25T13:52:28;1.23;;;1.10;;
19038;SDS011;9652;49.014;12.052;2024-03-25T13:54:54;1.77;;;1.20;;
19038;SDS011;9652;49.014;12.052;2024-03-25T13:57:20;2.30;;;1.10;;
19038;SDS011;9652;49.014;12.052;2024-03-25T13:59:47;1.03;;;0.93;;
19038;SDS011;9652;49.014;12.052;2024-03-25T14:02:14;1.27;;;1.17;;
19038;SDS011;9652;49.014;12.052;2024-03-25T14:04:41;2.50;;;1.60;;
19038;SDS011;9652;49.014;12.052;2024-03-25T14:07:07;1.20;;;1.10;;
19038;SDS011;9652;49.014;12.052;2024-03-25T14:09:33;0.97;;;0.97;;
19038;SDS011;9652;49.014;12.052;2024-03-25T14:11:59;1.60;;;1.13;;
19038;SDS011;9652;49.014;12.052;2024-03-25T14:14:25;1.73;;;1.33;;
19038;SDS011;9652;49.014;12.052;2024-03-25T14:16:52;1.50;;;1.40;;
19038;SDS011;9652;49.014;12.052;2024-03-25T14:19:19;1.20;;;1.10;;
19038;SDS011;9652;49.014;12.052;2024-03-25T14:21:47;1.57;;;1.30;;
19038;SDS011;9652;49.014;12.052;2024-03-25T14:24:14;1.07;;;0.93;;
19038;SDS011;9652;49.014;12.052;2024-03-25T14:26:40;1.10;;;1.00;;
19038;SDS011;9652;49.014;12.052;2024-03-25T14:29:06;1.13;;;0.90;;
19038;SDS011;9652;49.014;12.052;2024-03-25T14:31:33;1.30;;;1.20;;
19038;SDS011;9652;49.014;12.052;2024-03-25T14:34:00;1.30;;;0.93;;
19038;SDS011;9652;49.014;12.052;2024-03-25T14:36:27;1.00;;;0.93;;
19038;SDS011;9652;49.014;12.052;2024-03-25T14:38:53;0.90;;;0.90;;
19038;SDS011;9652;49.014;12.052;2024-03-25T14:41:20;2.40;;;1.20;;
19038;SDS011;9652;49.014;12.052;2024-03-25T14:43:47;1.50;;;0.93;;
19038;SDS011;9652;49.014;12.052;2024-03-25T14:46:13;1.43;;;1.20;;
19038;SDS011;9652;49.014;12.052;2024-03-25T14:48:39;1.37;;;1.10;;